createdAt,value
2022-09-17T00:02:08.752Z,99603.13
2022-09-17T00:04:35.090Z,99605.88
2022-09-17T00:07:01.422Z,99607.47
2022-09-17T00:09:28.131Z,99610.22
2022-09-17T00:11:54.412Z,99613.38
2022-09-17T00:14:20.737Z,99614.56
2022-09-17T00:16:47.828Z,99610.63
2022-09-17T00:19:18.678Z,99623.22
2022-09-17T00:21:45.331Z,99623.22
2022-09-17T00:24:12.256Z,99621.63
2022-09-17T00:26:38.631Z,99614.56
2022-09-17T00:29:05.641Z,99624.78
2022-09-17T00:31:32.206Z,99617.72
2022-09-17T00:33:59.495Z,99624.38
2022-09-17T00:36:25.959Z,99627.91
2022-09-17T00:38:53.347Z,99617.28
2022-09-17T00:41:20.523Z,99618.53
2022-09-17T00:43:49.000Z,99627.16
2022-09-17T00:46:30.348Z,99625.53
2022-09-17T00:48:58.280Z,99623.22
2022-09-17T00:51:30.761Z,99628.69
2022-09-17T00:53:57.317Z,99627.13
2022-09-17T00:56:27.690Z,99628.31
2022-09-17T00:58:54.717Z,99645.59
2022-09-17T01:01:21.086Z,99643.66
2022-09-17T01:03:47.590Z,99640.50
2022-09-17T01:06:32.733Z,99635.81
2022-09-17T01:09:15.372Z,99645.22
2022-09-17T01:12:00.673Z,99649.94
2022-09-17T01:14:40.434Z,99649.56
2022-09-17T01:17:14.870Z,99642.50
2022-09-17T01:19:59.867Z,99648.78
2022-09-17T01:22:26.124Z,99642.84
2022-09-17T01:25:10.920Z,99657.38
2022-09-17T01:27:56.086Z,99657.78
2022-09-17T01:30:41.354Z,99662.09
2022-09-17T01:33:13.832Z,99656.19
2022-09-17T01:35:48.756Z,99657.78
2022-09-17T01:38:20.781Z,99660.13
2022-09-17T01:41:07.646Z,99654.63
2022-09-17T01:43:42.639Z,99656.97
2022-09-17T01:46:09.009Z,99665.63
2022-09-17T01:48:40.072Z,99665.59
2022-09-17T01:51:06.439Z,99666.44
2022-09-17T01:53:41.150Z,99666.47
2022-09-17T01:56:09.417Z,99667.63
2022-09-17T01:58:40.086Z,99663.31
2022-09-17T02:01:07.950Z,99664.47
2022-09-17T02:03:41.026Z,99660.94
2022-09-17T02:06:10.228Z,99666.44
2022-09-17T02:08:42.643Z,99653.09
2022-09-17T02:11:13.691Z,99660.91
2022-09-17T02:13:58.819Z,99667.25
2022-09-17T02:16:28.750Z,99671.53
2022-09-17T02:19:04.741Z,99667.59
2022-09-17T02:21:49.669Z,99670.41
2022-09-17T02:24:17.751Z,99664.50
2022-09-17T02:26:58.377Z,99668.81
2022-09-17T02:29:41.706Z,99659.75
2022-09-17T02:32:08.732Z,99667.59
2022-09-17T02:34:35.437Z,99665.66
2022-09-17T02:37:03.137Z,99675.09
2022-09-17T02:39:29.437Z,99672.34
2022-09-17T02:42:07.892Z,99669.59
2022-09-17T02:44:39.913Z,99671.94
2022-09-17T02:47:15.410Z,99670.34
2022-09-17T02:49:42.063Z,99670.34
2022-09-17T02:52:27.319Z,99669.97
2022-09-17T02:54:56.621Z,99667.63
2022-09-17T02:57:35.318Z,99668.00
2022-09-17T03:00:07.670Z,99666.06
2022-09-17T03:02:37.253Z,99667.63
2022-09-17T03:05:04.297Z,99668.00
2022-09-17T03:07:32.557Z,99660.16
2022-09-17T03:09:58.884Z,99667.25
2022-09-17T03:12:26.755Z,99671.16
2022-09-17T03:14:53.058Z,99675.50
2022-09-17T03:17:19.343Z,99672.75
2022-09-17T03:19:45.632Z,99667.66
2022-09-17T03:22:12.478Z,99675.13
2022-09-17T03:24:38.755Z,99670.75
2022-09-17T03:27:05.182Z,99682.16
2022-09-17T03:29:31.533Z,99683.31
2022-09-17T03:31:57.898Z,99681.00
2022-09-17T03:34:24.249Z,99678.59
2022-09-17T03:36:50.589Z,99680.59
2022-09-17T03:39:16.910Z,99689.63
2022-09-17T03:41:43.197Z,99690.44
2022-09-17T03:44:11.279Z,99684.53
2022-09-17T03:46:37.663Z,99692.78
2022-09-17T03:49:04.185Z,99686.91
2022-09-17T03:51:31.012Z,99684.94
2022-09-17T03:53:57.360Z,99684.13
2022-09-17T03:56:23.732Z,99688.47
2022-09-17T03:58:50.023Z,99695.53
2022-09-17T04:01:16.387Z,99690.81
2022-09-17T04:03:42.811Z,99686.06
2022-09-17T04:06:09.110Z,99674.72
2022-09-17T04:08:36.580Z,99686.84
2022-09-17T04:11:02.892Z,99682.56
2022-09-17T04:13:29.225Z,99690.84
2022-09-17T04:15:55.575Z,99693.59
2022-09-17T04:18:21.946Z,99692.81
2022-09-17T04:20:48.288Z,99693.97
2022-09-17T04:23:14.686Z,99695.50
2022-09-17T04:25:41.025Z,99702.25
2022-09-17T04:28:07.337Z,99701.44
2022-09-17T04:30:33.632Z,99701.00
2022-09-17T04:32:59.952Z,99705.75
2022-09-17T04:35:26.359Z,99703.00
2022-09-17T04:37:53.896Z,99706.13
2022-09-17T04:40:20.573Z,99704.53
2022-09-17T04:42:47.143Z,99706.91
2022-09-17T04:45:13.476Z,99707.31
2022-09-17T04:47:39.873Z,99704.19
2022-09-17T04:50:06.760Z,99692.38
2022-09-17T04:52:33.524Z,99704.59
2022-09-17T04:54:59.797Z,99703.41
2022-09-17T04:57:26.966Z,99701.81
2022-09-17T04:59:53.377Z,99703.75
2022-09-17T05:02:19.747Z,99710.47
2022-09-17T05:04:46.080Z,99712.38
2022-09-17T05:07:13.995Z,99710.44
2022-09-17T05:09:40.402Z,99709.66
2022-09-17T05:12:06.986Z,99712.06
2022-09-17T05:14:33.260Z,99723.84
2022-09-17T05:16:59.685Z,99718.72
2022-09-17T05:19:26.020Z,99715.19
2022-09-17T05:21:52.337Z,99722.69
2022-09-17T05:24:18.629Z,99723.06
2022-09-17T05:26:46.162Z,99723.44
2022-09-17T05:29:12.523Z,99726.56
2022-09-17T05:31:38.936Z,99730.91
2022-09-17T05:34:05.402Z,99734.03
2022-09-17T05:36:31.720Z,99735.63
2022-09-17T05:38:58.048Z,99728.56
2022-09-17T05:41:24.424Z,99734.06
2022-09-17T05:43:51.170Z,99725.00
2022-09-17T05:46:17.518Z,99729.72
2022-09-17T05:48:44.119Z,99740.72
2022-09-17T05:51:10.439Z,99742.34
2022-09-17T05:53:36.735Z,99744.31
2022-09-17T05:56:03.048Z,99741.91
2022-09-17T05:58:29.568Z,99749.78
2022-09-17T06:00:55.903Z,99750.97
2022-09-17T06:03:24.885Z,99757.25
2022-09-17T06:05:53.387Z,99745.47
2022-09-17T06:08:19.685Z,99757.66
2022-09-17T06:10:45.983Z,99749.38
2022-09-17T06:13:12.294Z,99748.94
2022-09-17T06:15:38.592Z,99761.53
2022-09-17T06:18:05.035Z,99765.09
2022-09-17T06:20:31.351Z,99772.53
2022-09-17T06:22:58.156Z,99769.44
2022-09-17T06:25:25.063Z,99782.34
2022-09-17T06:27:51.408Z,99777.22
2022-09-17T06:30:17.755Z,99787.78
2022-09-17T06:32:44.242Z,99788.22
2022-09-17T06:35:10.607Z,99786.28
2022-09-17T06:37:40.151Z,99785.03
2022-09-17T06:40:07.303Z,99789.03
2022-09-17T06:42:33.669Z,99790.97
2022-09-17T06:45:03.009Z,99791.78
2022-09-17T06:47:33.550Z,99791.41
2022-09-17T06:50:01.616Z,99795.31
2022-09-17T06:52:28.178Z,99789.44
2022-09-17T06:54:54.502Z,99792.56
2022-09-17T06:57:20.802Z,99796.88
2022-09-17T06:59:47.165Z,99792.16
2022-09-17T07:02:13.589Z,99798.44
2022-09-17T07:04:39.945Z,99792.50
2022-09-17T07:07:06.345Z,99792.94
2022-09-17T07:09:32.737Z,99805.56
2022-09-17T07:11:59.234Z,99796.56
2022-09-17T07:14:25.541Z,99800.50
2022-09-17T07:16:52.680Z,99802.47
2022-09-17T07:19:18.990Z,99812.28
2022-09-17T07:21:47.710Z,99804.06
2022-09-17T07:24:14.022Z,99809.94
2022-09-17T07:26:40.301Z,99807.59
2022-09-17T07:29:06.605Z,99809.97
2022-09-17T07:31:32.985Z,99804.03
2022-09-17T07:33:59.463Z,99808.78
2022-09-17T07:36:25.936Z,99815.47
2022-09-17T07:38:52.239Z,99826.47
2022-09-17T07:41:18.895Z,99825.28
2022-09-17T07:43:45.225Z,99826.88
2022-09-17T07:46:16.259Z,99824.09
2022-09-17T07:48:42.749Z,99825.28
2022-09-17T07:51:14.061Z,99823.34
2022-09-17T07:53:40.518Z,99828.03
2022-09-17T07:56:11.696Z,99833.16
2022-09-17T07:58:38.425Z,99827.66
2022-09-17T08:01:06.901Z,99831.56
2022-09-17T08:03:33.489Z,99841.41
2022-09-17T08:06:04.217Z,99837.09
2022-09-17T08:08:34.073Z,99833.97
2022-09-17T08:11:01.742Z,99833.16
2022-09-17T08:13:28.257Z,99829.63
2022-09-17T08:15:57.853Z,99843.00
2022-09-17T08:18:24.197Z,99835.13
2022-09-17T08:20:50.488Z,99835.91
2022-09-17T08:23:16.802Z,99837.88
2022-09-17T08:25:43.103Z,99846.13
2022-09-17T08:28:09.426Z,99853.25
2022-09-17T08:30:35.814Z,99847.72
2022-09-17T08:33:02.110Z,99848.91
2022-09-17T08:35:28.396Z,99848.09
2022-09-17T08:37:55.864Z,99846.56
2022-09-17T08:40:22.978Z,99850.09
2022-09-17T08:42:51.909Z,99853.22
2022-09-17T08:45:19.159Z,99850.88
2022-09-17T08:47:46.277Z,99846.16
2022-09-17T08:50:14.903Z,99846.91
2022-09-17T08:52:47.349Z,99846.94
2022-09-17T08:55:19.889Z,99855.22
2022-09-17T08:57:58.249Z,99862.28
2022-09-17T09:00:24.856Z,99863.88
2022-09-17T09:02:55.940Z,99859.13
2022-09-17T09:05:33.174Z,99864.25
2022-09-17T09:08:05.541Z,99863.84
2022-09-17T09:10:39.077Z,99867.38
2022-09-17T09:13:05.842Z,99867.00
2022-09-17T09:15:42.620Z,99876.41
2022-09-17T09:18:19.347Z,99892.13
2022-09-17T09:20:46.564Z,99892.19
2022-09-17T09:23:17.539Z,99892.19
2022-09-17T09:25:52.062Z,99892.22
2022-09-17T09:28:24.350Z,99902.00
2022-09-17T09:30:50.643Z,99900.81
2022-09-17T09:33:19.407Z,99902.78
2022-09-17T09:35:45.878Z,99907.50
2022-09-17T09:38:15.979Z,99911.84
2022-09-17T09:40:53.484Z,99908.25
2022-09-17T09:43:21.496Z,99914.16
2022-09-17T09:45:53.914Z,99910.28
2022-09-17T09:48:32.100Z,99913.41
2022-09-17T09:51:18.637Z,99912.63
2022-09-17T09:53:53.385Z,99918.53
2022-09-17T09:56:38.095Z,99909.88
2022-09-17T09:59:06.960Z,99918.16
2022-09-17T10:01:34.365Z,99920.16
2022-09-17T10:04:00.885Z,99914.63
2022-09-17T10:06:29.792Z,99919.75
2022-09-17T10:08:56.142Z,99913.88
2022-09-17T10:11:29.401Z,99927.63
2022-09-17T10:14:14.023Z,99922.50
2022-09-17T10:16:40.447Z,99920.53
2022-09-17T10:19:06.889Z,99922.91
2022-09-17T10:21:33.245Z,99935.53
2022-09-17T10:24:00.399Z,99927.63
2022-09-17T10:26:29.493Z,99921.72
2022-09-17T10:28:57.106Z,99921.72
2022-09-17T10:31:23.606Z,99925.25
2022-09-17T10:34:12.765Z,99924.47
2022-09-17T10:36:39.524Z,99932.34
2022-09-17T10:39:44.190Z,99931.53
2022-09-17T10:42:17.389Z,99924.47
2022-09-17T10:45:00.767Z,99931.56
2022-09-17T10:47:37.455Z,99938.66
2022-09-17T10:50:15.958Z,99942.19
2022-09-17T10:52:47.940Z,99942.97
2022-09-17T10:55:33.499Z,99949.28
2022-09-17T10:58:04.112Z,99945.72
2022-09-17T11:00:44.869Z,99936.28
2022-09-17T11:03:14.157Z,99934.72
2022-09-17T11:05:55.731Z,99940.97
2022-09-17T11:08:38.618Z,99949.66
2022-09-17T11:11:12.293Z,99944.13
2022-09-17T11:14:01.097Z,99944.09
2022-09-17T11:16:33.581Z,99943.69
2022-09-17T11:19:05.972Z,99949.59
2022-09-17T11:21:39.694Z,99942.88
2022-09-17T11:24:05.984Z,99950.41
2022-09-17T11:26:38.105Z,99959.84
2022-09-17T11:29:20.557Z,99960.59
2022-09-17T11:31:54.603Z,99953.13
2022-09-17T11:34:20.938Z,99950.78
2022-09-17T11:36:59.436Z,99959.81
2022-09-17T11:39:30.973Z,99951.97
2022-09-17T11:42:00.333Z,99957.94
2022-09-17T11:44:32.410Z,99957.88
2022-09-17T11:47:03.357Z,99945.25
2022-09-17T11:49:30.011Z,99953.13
2022-09-17T11:51:59.365Z,99949.16
2022-09-17T11:54:25.688Z,99952.38
2022-09-17T11:56:54.203Z,99955.13
2022-09-17T11:59:20.587Z,99947.25
2022-09-17T12:01:58.028Z,99941.34
2022-09-17T12:04:40.660Z,99942.50
2022-09-17T12:07:26.463Z,99940.91
2022-09-17T12:10:11.592Z,99936.56
2022-09-17T12:12:50.521Z,99937.41
2022-09-17T12:15:28.081Z,99928.00
2022-09-17T12:18:08.708Z,99929.50
2022-09-17T12:20:42.624Z,99931.09
2022-09-17T12:23:14.967Z,99925.53
2022-09-17T12:26:04.306Z,99923.97
2022-09-17T12:28:39.494Z,99934.56
2022-09-17T12:31:11.534Z,99931.84
2022-09-17T12:33:41.799Z,99941.66
2022-09-17T12:36:28.409Z,99940.06
2022-09-17T12:39:15.308Z,99927.91
2022-09-17T12:41:59.992Z,99929.84
2022-09-17T12:44:45.117Z,99916.41
2022-09-17T12:47:37.514Z,99923.13
2022-09-17T12:50:08.597Z,99926.25
2022-09-17T12:52:52.643Z,99924.69
2022-09-17T12:55:37.763Z,99921.16
2022-09-17T12:58:39.641Z,99917.94
2022-09-17T13:01:22.836Z,99921.91
2022-09-17T13:03:54.398Z,99926.56
2022-09-17T13:06:29.969Z,99920.63
2022-09-17T13:09:02.319Z,99924.09
2022-09-17T13:11:41.292Z,99926.03
2022-09-17T13:14:27.409Z,99924.81
2022-09-17T13:17:00.936Z,99935.53
2022-09-17T13:19:44.002Z,99939.03
2022-09-17T13:22:17.538Z,99925.75
2022-09-17T13:24:47.144Z,99931.63
2022-09-17T13:27:25.922Z,99922.94
2022-09-17T13:29:55.176Z,99926.09
2022-09-17T13:32:33.810Z,99922.97
2022-09-17T13:35:12.445Z,99921.03
2022-09-17T13:37:41.890Z,99916.00
2022-09-17T13:40:23.722Z,99928.22
2022-09-17T13:42:55.257Z,99936.13
2022-09-17T13:45:22.700Z,99947.56
2022-09-17T13:47:55.196Z,99959.81
2022-09-17T13:50:30.257Z,99950.34
2022-09-17T13:53:01.241Z,99950.78
2022-09-17T13:55:44.625Z,99957.50
2022-09-17T13:58:13.923Z,99964.97
2022-09-17T14:00:52.619Z,99955.09
2022-09-17T14:03:31.138Z,99948.81
2022-09-17T14:06:26.570Z,99966.16
2022-09-17T14:08:57.852Z,99969.31
2022-09-17T14:11:28.088Z,99964.59
2022-09-17T14:13:55.107Z,99969.31
2022-09-17T14:16:41.770Z,99977.19
2022-09-17T14:19:23.372Z,99962.66
2022-09-17T14:22:01.911Z,99966.59
2022-09-17T14:24:31.169Z,99952.44
2022-09-17T14:27:00.534Z,99959.50
2022-09-17T14:29:27.052Z,99963.84
2022-09-17T14:31:53.404Z,99966.59
2022-09-17T14:34:21.121Z,99958.31
2022-09-17T14:36:47.859Z,99956.75
2022-09-17T14:39:25.356Z,99948.47
2022-09-17T14:41:54.563Z,99946.94
2022-09-17T14:44:22.403Z,99953.63
2022-09-17T14:46:54.535Z,99948.50
2022-09-17T14:49:22.869Z,99947.34
2022-09-17T14:51:58.610Z,99944.97
2022-09-17T14:54:32.338Z,99948.09
2022-09-17T14:57:10.518Z,99948.09
2022-09-17T14:59:36.789Z,99940.25
2022-09-17T15:02:03.279Z,99941.44
2022-09-17T15:04:29.681Z,99939.44
2022-09-17T15:07:08.997Z,99943.00
2022-09-17T15:09:35.375Z,99948.09
2022-09-17T15:12:02.073Z,99935.13
2022-09-17T15:14:33.564Z,99934.72
2022-09-17T15:17:01.849Z,99942.59
2022-09-17T15:19:30.996Z,99938.28
2022-09-17T15:21:57.466Z,99935.88
2022-09-17T15:24:23.759Z,99937.06
2022-09-17T15:26:53.322Z,99946.13
2022-09-17T15:29:22.199Z,99933.50
2022-09-17T15:31:48.863Z,99936.66
2022-09-17T15:34:15.306Z,99932.31
2022-09-17T15:37:01.559Z,99931.53
2022-09-17T15:39:30.111Z,99932.34
2022-09-17T15:41:57.082Z,99928.41
2022-09-17T15:44:30.819Z,99918.94
2022-09-17T15:47:17.218Z,99926.03
2022-09-17T15:50:03.592Z,99922.88
2022-09-17T15:52:34.138Z,99922.09
2022-09-17T15:55:00.716Z,99922.47
2022-09-17T15:57:30.530Z,99924.44
2022-09-17T16:00:05.212Z,99926.81
2022-09-17T16:02:32.385Z,99929.94
2022-09-17T16:05:14.400Z,99916.56
2022-09-17T16:07:41.784Z,99915.78
2022-09-17T16:10:09.105Z,99923.25
2022-09-17T16:12:36.009Z,99925.25
2022-09-17T16:15:02.956Z,99920.09
2022-09-17T16:17:49.593Z,99929.13
2022-09-17T16:20:18.078Z,99928.34
2022-09-17T16:22:45.167Z,99926.00
2022-09-17T16:25:11.567Z,99920.09
2022-09-17T16:27:42.660Z,99920.09
2022-09-17T16:30:14.007Z,99917.34
2022-09-17T16:32:40.285Z,99912.56
2022-09-17T16:35:06.766Z,99910.22
2022-09-17T16:37:33.056Z,99906.59
2022-09-17T16:40:00.870Z,99903.47
2022-09-17T16:42:30.142Z,99901.47
2022-09-17T16:44:56.504Z,99908.59
2022-09-17T16:47:22.899Z,99903.50
2022-09-17T16:49:49.267Z,99908.59
2022-09-17T16:52:15.563Z,99912.13
2022-09-17T16:54:41.863Z,99906.56
2022-09-17T16:57:08.216Z,99910.09
2022-09-17T16:59:34.606Z,99903.03
2022-09-17T17:02:01.385Z,99909.78
2022-09-17T17:04:27.732Z,99909.41
2022-09-17T17:06:54.049Z,99907.41
2022-09-17T17:09:20.379Z,99909.41
2022-09-17T17:11:46.739Z,99913.34
2022-09-17T17:14:14.946Z,99906.22
2022-09-17T17:16:43.441Z,99904.28
2022-09-17T17:19:09.781Z,99907.50
2022-09-17T17:21:36.227Z,99906.69
2022-09-17T17:24:03.148Z,99901.97
2022-09-17T17:26:29.534Z,99908.25
2022-09-17T17:28:56.015Z,99911.03
2022-09-17T17:31:22.366Z,99901.22
2022-09-17T17:33:48.738Z,99901.22
2022-09-17T17:36:15.085Z,99908.66
2022-09-17T17:38:41.532Z,99904.75
2022-09-17T17:41:09.389Z,99913.78
2022-09-17T17:43:36.126Z,99915.31
2022-09-17T17:46:05.085Z,99903.94
2022-09-17T17:48:31.407Z,99903.13
2022-09-17T17:51:07.823Z,99906.59
2022-09-17T17:53:34.983Z,99892.00
2022-09-17T17:56:02.785Z,99898.69
2022-09-17T17:58:29.193Z,99893.25
2022-09-17T18:00:56.203Z,99894.81
2022-09-17T18:03:25.072Z,99898.03
2022-09-17T18:05:58.454Z,99896.72
2022-09-17T18:08:24.873Z,99899.06
2022-09-17T18:10:55.458Z,99904.91
2022-09-17T18:13:22.537Z,99900.50
2022-09-17T18:15:52.960Z,99900.50
2022-09-17T18:18:19.655Z,99901.16
2022-09-17T18:20:46.193Z,99897.75
2022-09-17T18:23:12.532Z,99895.78
2022-09-17T18:25:38.829Z,99896.09
2022-09-17T18:28:05.221Z,99889.28
2022-09-17T18:30:32.504Z,99893.22
2022-09-17T18:32:58.868Z,99903.63
2022-09-17T18:35:25.371Z,99891.50
2022-09-17T18:37:51.685Z,99899.38
2022-09-17T18:40:18.017Z,99908.03
2022-09-17T18:42:44.392Z,99908.00
2022-09-17T18:45:10.878Z,99905.72
2022-09-17T18:47:37.176Z,99904.13
2022-09-17T18:50:03.632Z,99911.06
2022-09-17T18:52:29.945Z,99902.81
2022-09-17T18:54:56.224Z,99905.41
2022-09-17T18:57:22.589Z,99909.91
2022-09-17T18:59:48.958Z,99906.03
2022-09-17T19:02:15.309Z,99906.00
2022-09-17T19:04:41.682Z,99912.34
2022-09-17T19:07:07.985Z,99917.47
2022-09-17T19:09:34.290Z,99911.56
2022-09-17T19:12:00.662Z,99912.75
2022-09-17T19:14:27.015Z,99912.78
2022-09-17T19:16:55.118Z,99908.84
2022-09-17T19:19:21.458Z,99908.41
2022-09-17T19:21:48.959Z,99915.91
2022-09-17T19:24:15.266Z,99919.03
2022-09-17T19:26:41.710Z,99911.94
2022-09-17T19:29:09.015Z,99902.03
2022-09-17T19:31:35.436Z,99917.06
2022-09-17T19:34:02.049Z,99907.63
2022-09-17T19:36:28.458Z,99911.97
2022-09-17T19:38:54.988Z,99910.38
2022-09-17T19:41:25.098Z,99904.91
2022-09-17T19:43:52.240Z,99906.47
2022-09-17T19:46:19.593Z,99899.06
2022-09-17T19:48:46.993Z,99904.91
2022-09-17T19:51:13.854Z,99899.84
2022-09-17T19:53:40.473Z,99899.81
2022-09-17T19:56:07.357Z,99898.19
2022-09-17T19:58:33.692Z,99907.66
2022-09-17T20:01:00.043Z,99889.59
2022-09-17T20:03:26.824Z,99899.00
2022-09-17T20:06:03.908Z,99892.75
2022-09-17T20:08:30.590Z,99892.28
2022-09-17T20:10:59.953Z,99896.22
2022-09-17T20:13:26.343Z,99887.41
2022-09-17T20:15:52.688Z,99894.53
2022-09-17T20:18:23.343Z,99893.44
2022-09-17T20:20:50.082Z,99893.41
2022-09-17T20:23:16.609Z,99900.53
2022-09-17T20:25:45.681Z,99894.16
2022-09-17T20:28:11.978Z,99905.53
2022-09-17T20:30:38.283Z,99896.84
2022-09-17T20:33:04.676Z,99896.31
2022-09-17T20:35:30.990Z,99892.72
2022-09-17T20:40:44.138Z,99889.31
2022-09-17T20:43:10.446Z,99894.06
2022-09-17T20:45:36.812Z,99889.78
2022-09-17T20:48:03.290Z,99892.16
2022-09-17T20:50:29.595Z,99905.66
2022-09-17T20:52:56.230Z,99894.84
2022-09-17T20:55:22.540Z,99896.31
2022-09-17T20:57:48.840Z,99900.63
2022-09-17T21:00:20.624Z,99905.47
2022-09-17T21:02:51.768Z,99904.22
2022-09-17T21:05:18.470Z,99904.94
2022-09-17T21:07:44.879Z,99908.19
2022-09-17T21:10:12.425Z,99916.06
2022-09-17T21:12:38.795Z,99914.09
2022-09-17T21:15:05.390Z,99927.69
2022-09-17T21:17:33.816Z,99921.38
2022-09-17T21:20:00.119Z,99920.31
2022-09-17T21:22:26.469Z,99921.06
2022-09-17T21:24:52.826Z,99910.16
2022-09-17T21:27:19.106Z,99915.75
2022-09-17T21:29:45.421Z,99911.41
2022-09-17T21:32:11.711Z,99910.59
2022-09-17T21:34:38.072Z,99912.66
2022-09-17T21:37:05.036Z,99916.16
2022-09-17T21:39:34.947Z,99915.00
2022-09-17T21:42:01.312Z,99913.03
2022-09-17T21:44:27.576Z,99919.28
2022-09-17T21:46:57.403Z,99925.44
2022-09-17T21:49:24.787Z,99915.31
2022-09-17T21:51:51.127Z,99934.09
2022-09-17T21:54:17.946Z,99923.06
2022-09-17T21:56:44.683Z,99926.28
2022-09-17T21:59:12.465Z,99937.13
2022-09-17T22:01:40.547Z,99930.13
2022-09-17T22:04:08.331Z,99924.53
2022-09-17T22:06:35.286Z,99926.03
2022-09-17T22:09:02.349Z,99930.75
2022-09-17T22:11:33.594Z,99922.06
2022-09-17T22:14:25.969Z,99924.06
2022-09-17T22:16:54.040Z,99918.00
2022-09-17T22:19:21.151Z,99918.19
2022-09-17T22:21:49.088Z,99919.06
2022-09-17T22:24:15.998Z,99912.69
2022-09-17T22:26:43.549Z,99918.19
2022-09-17T22:29:14.394Z,99915.75
2022-09-17T22:31:40.791Z,99918.75
2022-09-17T22:34:08.306Z,99916.47
2022-09-17T22:36:34.657Z,99913.50
2022-09-17T22:39:01.088Z,99918.97
2022-09-17T22:41:28.802Z,99916.28
2022-09-17T22:44:00.141Z,99912.59
2022-09-17T22:46:27.540Z,99910.56
2022-09-17T22:48:54.300Z,99913.81
2022-09-17T22:51:20.719Z,99919.38
2022-09-17T22:53:47.091Z,99919.03
2022-09-17T22:56:15.041Z,99911.06
2022-09-17T22:58:41.803Z,99914.97
2022-09-17T23:01:12.685Z,99914.50
2022-09-17T23:03:40.152Z,99911.91
2022-09-17T23:06:08.258Z,99910.38
2022-09-17T23:08:35.123Z,99913.88
2022-09-17T23:11:01.509Z,99910.44
2022-09-17T23:13:29.304Z,99907.34
2022-09-17T23:16:06.077Z,99906.91
2022-09-17T23:18:32.494Z,99907.81
2022-09-17T23:20:59.380Z,99904.34
2022-09-17T23:23:26.292Z,99904.72
2022-09-17T23:25:53.015Z,99900.03
2022-09-17T23:28:19.306Z,99907.56
2022-09-17T23:30:47.129Z,99908.38
2022-09-17T23:33:14.559Z,99918.63
2022-09-17T23:35:40.908Z,99905.66
2022-09-17T23:38:07.305Z,99909.25
2022-09-17T23:40:34.205Z,99904.50
2022-09-17T23:43:00.667Z,99912.28
2022-09-17T23:45:26.967Z,99913.81
2022-09-17T23:47:53.443Z,99918.59
2022-09-17T23:50:19.771Z,99915.78
2022-09-17T23:52:46.051Z,99913.88
2022-09-17T23:55:12.363Z,99914.56
2022-09-17T23:57:39.065Z,99906.66
